Time;durP1;ratioP1;P1;durP2;ratioP2;P2;SDS_P1;SDS_P2;PMS_P1;PMS_P2;Temp;Humidity;BMP_temperature;BMP_pressure;BME280_temperature;BME280_humidity;BME280_pressure;Samples;Min_cycle;Max_cycle;Signal;HPM_P1;HPM_P2
2021/04/15 00:00:33;;;;;;;1.52;1.25;;;;;;;3.78;41.79;102552.63;7792970;29;20035;-66
2021/04/15 00:04:24;;;;;;;4.35;1.95;;;;;;;3.71;41.58;102562.25;7823000;29;20135;-66
2021/04/15 00:08:18;;;;;;;3.25;1.98;;;;;;;3.66;41.78;102558.81;7822941;29;20111;-66
2021/04/15 00:12:09;;;;;;;2.17;1.63;;;;;;;3.58;41.73;102557.19;7818765;29;20048;-65
2021/04/15 00:16:00;;;;;;;2.03;1.50;;;;;;;3.52;41.73;102555.53;7822036;29;20079;-65
2021/04/15 00:19:51;;;;;;;3.03;1.52;;;;;;;3.49;41.90;102562.50;7822394;29;20040;-66
2021/04/15 00:23:42;;;;;;;2.13;1.60;;;;;;;3.42;42.11;102555.63;7822477;29;20046;-66
2021/04/15 00:27:33;;;;;;;4.22;2.00;;;;;;;3.34;42.07;102551.38;7821953;29;20182;-66
2021/04/15 00:31:25;;;;;;;2.13;1.50;;;;;;;3.33;41.82;102553.97;7812002;29;20040;-65
2021/04/15 00:35:17;;;;;;;1.85;1.60;;;;;;;3.28;42.20;102553.13;7792021;29;20028;-66
2021/04/15 00:39:11;;;;;;;3.95;1.48;;;;;;;3.23;42.29;102547.97;7792010;29;20040;-66
2021/04/15 00:43:02;;;;;;;2.97;1.60;;;;;;;3.18;42.47;102547.16;7791867;29;20040;-66
2021/04/15 00:46:59;;;;;;;2.75;1.90;;;;;;;3.14;42.50;102547.19;7804992;29;20042;-66
2021/04/15 00:50:58;;;;;;;2.25;1.90;;;;;;;3.09;42.62;102552.41;7821646;29;20047;-66
2021/04/15 00:55:00;;;;;;;1.90;1.67;;;;;;;3.05;42.39;102549.84;7816615;29;20050;-66
2021/04/15 00:58:51;;;;;;;2.25;1.63;;;;;;;3.00;42.33;102539.50;7821227;29;20048;-66
2021/04/15 01:02:43;;;;;;;4.93;2.13;;;;;;;2.96;42.70;102536.94;7821170;29;20082;-65
2021/04/15 01:06:34;;;;;;;3.10;1.80;;;;;;;2.93;42.74;102531.78;7821038;29;20086;-66
2021/04/15 01:10:26;;;;;;;2.75;1.88;;;;;;;2.89;42.65;102530.94;7821259;29;20122;-66
2021/04/15 01:14:26;;;;;;;2.15;1.63;;;;;;;2.84;42.36;102530.13;7821131;29;20032;-66
2021/04/15 01:18:56;;;;;;;2.75;2.08;;;;;;;2.78;42.24;102522.41;7795685;29;20048;-65
2021/04/15 01:23:01;;;;;;;2.67;1.80;;;;;;;2.71;42.75;102515.50;7790716;29;20119;-66
2021/04/15 01:27:10;;;;;;;2.33;2.10;;;;;;;2.65;42.23;102526.81;7791057;29;20032;-66
2021/04/15 01:31:19;;;;;;;;;;;;;;;2.54;42.34;102525.13;7791209;29;20517;-65
2021/04/15 01:35:27;;;;;;;;;;;;;;;2.45;42.15;102526.09;7788448;29;19915;-65
2021/04/15 01:39:23;;;;;;;2.20;1.80;;;;;;;2.42;42.04;102528.66;7789043;29;19974;-65
2021/04/15 01:43:22;;;;;;;3.08;1.98;;;;;;;2.39;42.81;102536.47;7790681;29;20063;-65
2021/04/15 01:47:19;;;;;;;2.25;1.65;;;;;;;2.36;42.75;102529.59;7787159;29;20036;-65
2021/04/15 01:51:15;;;;;;;4.47;2.10;;;;;;;2.34;42.51;102543.41;7790151;29;20037;-65
2021/04/15 01:55:29;;;;;;;2.40;1.70;;;;;;;2.26;42.63;102533.09;7790336;29;20028;-65
2021/04/15 01:59:33;;;;;;;3.92;1.88;;;;;;;2.22;42.61;102528.78;7790399;29;20029;-65
2021/04/15 02:03:29;;;;;;;2.85;2.17;;;;;;;2.22;42.37;102535.72;7788392;29;20505;-65
2021/04/15 02:07:21;;;;;;;2.30;1.63;;;;;;;2.19;42.90;102535.72;7793343;29;20442;-65
2021/04/15 02:11:28;;;;;;;2.72;2.00;;;;;;;2.15;43.00;102534.88;7779071;29;20052;-65
2021/04/15 02:15:23;;;;;;;4.80;2.20;;;;;;;2.11;43.05;102533.19;7795068;29;20032;-65
2021/04/15 02:19:32;;;;;;;2.83;2.17;;;;;;;2.07;43.08;102528.88;7796362;29;20044;-65
2021/04/15 02:23:32;;;;;;;3.65;2.00;;;;;;;2.04;43.50;102535.81;7780253;29;20036;-65
2021/04/15 02:27:38;;;;;;;3.10;1.88;;;;;;;2.01;43.41;102533.22;7795842;29;20028;-65
2021/04/15 02:31:36;;;;;;;3.08;1.77;;;;;;;1.99;43.02;102540.16;7795443;29;20100;-65
2021/04/15 02:35:32;;;;;;;2.37;2.00;;;;;;;1.94;42.94;102537.56;7795519;29;20416;-65
2021/04/15 02:39:38;;;;;;;3.83;1.80;;;;;;;1.91;42.84;102538.47;7795206;29;21043;-65
2021/04/15 02:43:42;;;;;;;3.53;1.85;;;;;;;1.87;43.31;102533.28;7795180;29;20048;-65
2021/04/15 02:47:37;;;;;;;3.65;1.95;;;;;;;1.83;43.60;102537.59;7786831;29;20040;-65
2021/04/15 02:51:32;;;;;;;5.65;2.42;;;;;;;1.81;43.38;102547.13;7795029;29;20036;-65
2021/04/15 02:55:27;;;;;;;2.65;2.00;;;;;;;1.78;43.15;102544.53;7794659;29;20043;-65
2021/04/15 02:59:24;;;;;;;3.45;1.80;;;;;;;1.75;43.49;102546.28;7794280;29;20521;-65
2021/04/15 03:03:18;;;;;;;1.60;1.50;;;;;;;1.72;43.29;102548.84;7793386;29;20036;-65
2021/04/15 03:07:11;;;;;;;3.60;2.35;;;;;;;1.69;43.80;102547.16;7794360;29;20509;-65
2021/04/15 03:11:07;;;;;;;1.73;1.50;;;;;;;1.67;43.32;102545.41;7794535;29;20040;-65
2021/04/15 03:15:10;;;;;;;3.05;2.10;;;;;;;1.61;43.84;102540.25;7794175;29;20064;-65
2021/04/15 03:19:03;;;;;;;2.05;1.73;;;;;;;1.61;44.00;102551.50;7779418;29;20758;-65
2021/04/15 03:23:00;;;;;;;2.78;1.95;;;;;;;1.56;43.85;102540.28;7794070;29;20052;-65
2021/04/15 03:27:24;;;;;;;2.85;2.10;;;;;;;1.53;43.44;102553.25;7793714;29;20040;-65
2021/04/15 03:31:22;;;;;;;1.70;1.42;;;;;;;1.50;43.40;102545.47;7780486;29;20060;-65
2021/04/15 03:35:32;;;;;;;3.13;1.70;;;;;;;1.46;44.14;102552.38;7793650;29;20218;-65
2021/04/15 03:39:33;;;;;;;2.30;1.70;;;;;;;1.42;43.63;102542.88;7793729;29;20036;-65
2021/04/15 03:43:32;;;;;;;3.85;1.85;;;;;;;1.40;43.99;102547.22;7793276;29;20114;-65
2021/04/15 03:47:30;;;;;;;1.98;1.70;;;;;;;1.36;43.33;102553.25;7792271;29;20513;-65
2021/04/15 03:51:30;;;;;;;3.13;1.65;;;;;;;1.33;43.54;102545.50;7790238;29;20035;-65
2021/04/15 03:55:29;;;;;;;1.70;1.52;;;;;;;1.28;43.53;102543.78;7792461;29;20050;-65
2021/04/15 03:59:40;;;;;;;3.47;1.90;;;;;;;1.23;44.19;102540.31;7793108;29;20028;-65
2021/04/15 04:03:34;;;;;;;2.00;1.80;;;;;;;1.25;43.96;102549.81;7792055;29;20051;-65
2021/04/15 04:07:31;;;;;;;2.88;2.40;;;;;;;1.23;43.75;102554.13;7792550;29;20032;-65
2021/04/15 04:11:24;;;;;;;5.15;1.70;;;;;;;1.15;43.79;102547.22;7792620;29;20040;-65
2021/04/15 04:15:26;;;;;;;4.22;1.88;;;;;;;1.16;44.18;102556.72;7791678;29;20028;-65
2021/04/15 04:19:41;;;;;;;5.15;1.90;;;;;;;1.10;44.36;102562.75;7792569;29;20087;-65
2021/04/15 04:23:48;;;;;;;3.45;1.80;;;;;;;1.09;43.83;102570.53;7791884;29;20032;-64
2021/04/15 04:27:47;;;;;;;2.30;1.35;;;;;;;1.02;44.05;102569.66;7776976;29;20111;-65
2021/04/15 04:31:42;;;;;;;3.00;1.80;;;;;;;1.00;44.10;102566.22;7783604;29;20501;-65
2021/04/15 04:35:38;;;;;;;2.75;1.80;;;;;;;0.96;43.88;102572.25;7783865;29;20036;-65
2021/04/15 04:39:29;;;;;;;2.83;2.08;;;;;;;0.92;43.81;102573.13;7791002;29;20032;-65
2021/04/15 04:43:25;;;;;;;2.33;1.55;;;;;;;0.88;44.45;102572.22;7791039;29;20119;-65
2021/04/15 04:47:55;;;;;;;2.25;1.52;;;;;;;0.85;44.25;102569.63;7790432;29;20488;-65
2021/04/15 04:51:50;;;;;;;2.75;1.95;;;;;;;0.86;44.48;102584.31;7761917;29;20088;-65
2021/04/15 04:55:47;;;;;;;3.28;1.90;;;;;;;0.89;44.61;102580.88;7789926;29;20036;-65
2021/04/15 04:59:43;;;;;;;2.10;1.65;;;;;;;0.91;44.02;102586.91;7787855;29;20044;-65
2021/04/15 05:03:34;;;;;;;3.53;1.73;;;;;;;0.93;44.41;102587.75;7785835;29;20044;-64
2021/04/15 05:07:27;;;;;;;4.22;2.83;;;;;;;0.94;44.58;102582.59;7790086;29;20099;-64
2021/04/15 05:11:18;;;;;;;1.60;1.50;;;;;;;1.01;44.95;102588.63;7790857;29;20036;-64
2021/04/15 05:15:09;;;;;;;2.85;1.80;;;;;;;1.06;45.06;102581.75;7789768;29;20043;-64
2021/04/15 05:19:00;;;;;;;4.47;1.80;;;;;;;1.12;44.18;102594.69;7790324;29;20056;-64
2021/04/15 05:23:11;;;;;;;4.95;1.83;;;;;;;1.17;44.42;102602.47;7790758;29;20135;-64
2021/04/15 05:27:03;;;;;;;2.33;1.80;;;;;;;1.20;44.67;102602.47;7790155;29;20079;-64
2021/04/15 05:30:54;;;;;;;4.28;2.10;;;;;;;1.21;45.10;102601.59;7789828;29;20410;-64
2021/04/15 05:34:47;;;;;;;3.38;1.85;;;;;;;1.27;44.36;102602.47;7789531;29;20032;-64
2021/04/15 05:38:44;;;;;;;3.67;2.03;;;;;;;1.31;44.83;102603.31;7784506;29;20067;-64
2021/04/15 05:42:44;;;;;;;2.15;1.73;;;;;;;1.34;44.65;102599.00;7790742;29;20044;-64
2021/04/15 05:46:42;;;;;;;1.92;1.40;;;;;;;1.39;45.26;102606.75;7794988;29;20079;-64
2021/04/15 05:50:38;;;;;;;2.40;1.75;;;;;;;1.39;44.57;102607.63;7779580;29;20511;-64
2021/04/15 05:54:31;;;;;;;2.47;1.83;;;;;;;1.50;44.93;102607.66;7792928;29;20135;-64
2021/04/15 05:58:31;;;;;;;5.13;1.98;;;;;;;1.62;45.70;102606.75;7795652;29;20028;-64
2021/04/15 06:02:34;;;;;;;3.53;2.28;;;;;;;1.72;45.23;102611.91;7795293;29;20032;-64
2021/04/15 06:06:29;;;;;;;2.88;2.20;;;;;;;1.87;45.81;102606.69;7795271;29;20036;-64
2021/04/15 06:10:23;;;;;;;3.95;1.80;;;;;;;2.14;45.26;102615.25;7795837;29;20630;-64
2021/04/15 06:14:35;;;;;;;5.22;2.17;;;;;;;2.48;45.73;102611.66;7795434;29;20040;-64
2021/04/15 06:18:47;;;;;;;5.05;2.45;;;;;;;2.84;45.74;102608.84;7790936;29;20040;-65
2021/04/15 06:22:42;;;;;;;2.58;1.88;;;;;;;3.29;46.13;102612.00;7788059;29;20116;-64
2021/04/15 06:26:44;;;;;;;4.97;2.72;;;;;;;3.88;45.86;102624.44;7794534;29;20036;-64
2021/04/15 06:30:54;;;;;;;4.88;2.20;;;;;;;4.58;45.33;102613.19;7792949;29;20044;-64
2021/04/15 06:34:56;;;;;;;4.60;2.70;;;;;;;5.53;45.04;102609.13;7789792;29;20048;-64
2021/04/15 06:38:52;;;;;;;5.13;2.63;;;;;;;6.46;44.72;102610.78;7795289;29;20051;-64
2021/04/15 06:43:00;;;;;;;12.23;2.78;;;;;;;7.50;44.08;102610.06;7794947;29;20051;-64
2021/04/15 06:47:06;;;;;;;;;;;;;;;8.44;44.10;102613.63;7793914;29;20048;-64
2021/04/15 06:51:15;;;;;;;7.50;3.22;;;;;;;9.52;43.10;102606.66;7786557;29;19923;-65
2021/04/15 06:55:56;;;;;;;5.78;2.28;;;;;;;10.32;43.04;102605.50;7790230;29;20044;-64
2021/04/15 07:00:11;;;;;;;4.93;2.63;;;;;;;11.06;42.60;102607.88;7700522;29;20055;-64
2021/04/15 07:04:20;;;;;;;6.53;2.75;;;;;;;11.68;42.59;102603.53;7793623;29;20688;-64
2021/04/15 07:08:48;;;;;;;6.30;2.53;;;;;;;12.18;42.87;102609.19;7793308;29;20522;-64
2021/04/15 07:13:07;;;;;;;7.38;2.58;;;;;;;13.00;42.03;102606.19;7764032;29;20180;-64
2021/04/15 07:16:58;;;;;;;4.45;2.67;;;;;;;13.97;40.88;102603.81;7805211;29;20046;-64
2021/04/15 07:20:59;;;;;;;7.03;2.58;;;;;;;14.75;39.95;102601.28;7823940;29;20050;-64
2021/04/15 07:25:15;;;;;;;5.47;2.60;;;;;;;15.57;38.76;102608.91;7823371;29;20051;-65
2021/04/15 07:29:20;;;;;;;7.18;2.65;;;;;;;16.49;38.12;102602.31;7823108;29;20071;-64
2021/04/15 07:33:27;;;;;;;5.22;2.83;;;;;;;17.36;37.54;102597.44;7822797;29;20051;-64
2021/04/15 07:37:27;;;;;;;11.57;2.95;;;;;;;18.07;36.79;102589.78;7822240;29;20055;-64
2021/04/15 07:41:37;;;;;;;5.43;2.70;;;;;;;18.62;36.41;102604.50;7823164;29;20079;-64
2021/04/15 07:45:50;;;;;;;4.38;2.35;;;;;;;19.22;35.78;102596.47;7819248;29;20047;-64
2021/04/15 07:49:43;;;;;;;6.97;2.90;;;;;;;19.84;35.26;102604.97;7789943;29;20040;-64
2021/04/15 07:53:56;;;;;;;8.27;2.72;;;;;;;20.23;34.20;102598.28;7792021;29;20827;-64
2021/04/15 07:57:47;;;;;;;5.57;2.63;;;;;;;20.68;34.10;102599.09;7787117;29;20044;-64
2021/04/15 08:01:52;;;;;;;3.40;2.40;;;;;;;21.10;33.07;102592.88;7775651;29;20108;-64
2021/04/15 08:06:04;;;;;;;3.05;1.90;;;;;;;21.64;32.77;102597.19;7785986;29;20050;-64
2021/04/15 08:10:13;;;;;;;5.72;2.42;;;;;;;22.15;32.04;102599.00;7771062;29;20040;-65
2021/04/15 08:14:13;;;;;;;3.90;1.75;;;;;;;22.63;31.02;102605.34;7767646;29;20063;-65
2021/04/15 08:18:11;;;;;;;4.43;2.10;;;;;;;22.88;30.84;102610.19;7789401;29;20043;-64
2021/04/15 08:22:16;;;;;;;3.35;1.75;;;;;;;23.32;30.14;102602.59;7788360;29;20519;-65
2021/04/15 08:26:39;;;;;;;1.92;1.70;;;;;;;23.72;29.75;102603.22;7784693;29;20043;-64
2021/04/15 08:30:42;;;;;;;4.13;1.45;;;;;;;24.17;29.05;102608.69;7788695;29;20039;-64
2021/04/15 08:34:35;;;;;;;4.43;1.80;;;;;;;24.75;28.58;102598.47;7771027;29;20103;-65
2021/04/15 08:38:41;;;;;;;2.78;1.90;;;;;;;24.94;27.87;102600.16;7784347;29;20107;-64
2021/04/15 08:42:53;;;;;;;4.28;1.83;;;;;;;24.17;27.33;102607.84;7787194;29;20032;-65
2021/04/15 08:46:56;;;;;;;2.58;1.83;;;;;;;22.63;27.70;102609.88;7787042;29;20135;-64
2021/04/15 08:51:36;;;;;;;3.83;1.92;;;;;;;21.34;28.03;102614.03;7795772;29;20099;-64
2021/04/15 08:55:39;;;;;;;4.75;2.15;;;;;;;20.00;28.47;102612.63;7639585;29;20141;-64
2021/04/15 08:59:53;;;;;;;6.45;2.38;;;;;;;19.52;28.95;102614.56;7715773;29;20083;-64
2021/04/15 09:03:54;;;;;;;8.45;2.15;;;;;;;18.95;29.61;102625.97;7788247;29;20060;-64
2021/04/15 09:07:48;;;;;;;5.95;2.25;;;;;;;18.03;29.32;102630.88;7805984;29;20031;-64
2021/04/15 09:11:57;;;;;;;6.05;2.75;;;;;;;17.83;30.06;102628.75;7806921;29;20040;-64
2021/04/15 09:15:57;;;;;;;5.88;2.72;;;;;;;17.37;29.94;102625.69;7807104;29;21293;-64
2021/04/15 09:20:01;;;;;;;6.72;2.95;;;;;;;17.09;30.10;102626.69;7806915;29;20095;-64
2021/04/15 09:24:16;;;;;;;7.75;3.20;;;;;;;17.03;30.23;102621.78;7805806;29;20035;-64
2021/04/15 09:28:22;;;;;;;4.65;2.42;;;;;;;16.55;30.49;102626.63;7805785;29;20036;-64
2021/04/15 09:32:19;;;;;;;9.80;2.80;;;;;;;16.04;30.30;102632.50;7807490;29;20777;-64
2021/04/15 09:36:29;;;;;;;8.53;3.53;;;;;;;15.66;30.53;102625.06;7789142;29;20047;-64
2021/04/15 09:40:26;;;;;;;8.70;4.15;;;;;;;15.35;30.64;102625.19;7807352;29;20043;-64
2021/04/15 09:44:24;;;;;;;3.28;2.40;;;;;;;15.00;30.78;102627.19;7807190;29;20403;-64
2021/04/15 09:48:28;;;;;;;4.22;2.40;;;;;;;14.61;31.14;102622.38;7787883;29;20040;-64
2021/04/15 09:52:40;;;;;;;7.15;3.38;;;;;;;14.33;31.17;102617.72;7805657;29;20071;-64
2021/04/15 09:56:59;;;;;;;4.85;2.75;;;;;;;14.17;31.17;102611.53;7807524;29;20225;-64
2021/04/15 10:00:52;;;;;;;4.75;3.15;;;;;;;14.09;30.87;102610.28;7806410;29;20062;-64
2021/04/15 10:04:51;;;;;;;7.80;3.80;;;;;;;13.98;31.18;102607.31;7806728;29;20203;-64
2021/04/15 10:08:53;;;;;;;5.15;4.00;;;;;;;13.83;31.09;102611.66;7806880;29;20057;-64
2021/04/15 10:13:21;;;;;;;7.45;3.60;;;;;;;13.52;31.08;102608.81;7806203;29;20043;-64
2021/04/15 10:17:49;;;;;;;6.40;3.42;;;;;;;13.27;31.07;102611.84;7801970;29;20036;-64
2021/04/15 10:21:55;;;;;;;4.60;3.43;;;;;;;13.14;31.11;102610.78;7805416;29;20114;-64
2021/04/15 10:25:59;;;;;;;5.45;3.70;;;;;;;13.02;31.22;102614.00;7785874;29;20046;-64
2021/04/15 10:30:09;;;;;;;5.72;3.25;;;;;;;12.84;31.37;102610.50;7810792;29;20046;-64
2021/04/15 10:34:36;;;;;;;7.32;3.20;;;;;;;12.77;31.29;102607.28;7780549;29;20098;-64
2021/04/15 10:38:39;;;;;;;3.85;2.30;;;;;;;12.79;30.96;102604.56;7780177;29;20082;-64
2021/04/15 10:42:48;;;;;;;7.82;2.53;;;;;;;12.79;31.20;102597.53;7782065;29;20040;-64
2021/04/15 10:46:57;;;;;;;7.05;2.35;;;;;;;12.74;31.17;102593.38;7779071;29;20421;-65
2021/04/15 10:50:53;;;;;;;6.70;2.30;;;;;;;12.68;31.02;102594.53;7781454;29;20040;-65
2021/04/15 10:54:45;;;;;;;2.67;1.88;;;;;;;12.60;31.11;102594.03;7781768;29;20048;-64
2021/04/15 10:58:41;;;;;;;3.83;2.20;;;;;;;12.56;30.82;102592.44;7781235;29;20055;-64
2021/04/15 11:02:48;;;;;;;4.15;2.42;;;;;;;12.56;31.18;102597.72;7790881;29;20718;-64
2021/04/15 11:06:47;;;;;;;3.40;1.70;;;;;;;12.57;31.16;102590.66;7788878;29;20036;-64
2021/04/15 11:10:38;;;;;;;2.88;1.48;;;;;;;12.59;31.22;102581.81;7793287;29;20688;-64
2021/04/15 11:14:39;;;;;;;6.10;2.13;;;;;;;12.66;31.27;102582.34;7797462;29;20036;-64
2021/04/15 11:18:34;;;;;;;3.92;2.08;;;;;;;12.66;31.49;102577.94;7797126;29;20039;-66
2021/04/15 11:22:31;;;;;;;4.13;2.05;;;;;;;12.62;31.13;102575.50;7795495;29;20043;-64
2021/04/15 11:26:27;;;;;;;2.87;1.80;;;;;;;12.52;31.49;102565.38;7790967;29;20024;-64
2021/04/15 11:30:39;;;;;;;2.90;1.75;;;;;;;12.55;31.51;102567.03;7775365;29;20118;-65
2021/04/15 11:34:29;;;;;;;2.38;1.77;;;;;;;12.61;31.22;102565.88;7796014;29;20040;-64
2021/04/15 11:38:24;;;;;;;1.98;1.63;;;;;;;12.60;31.25;102554.50;7793121;29;20118;-64
2021/04/15 11:42:15;;;;;;;2.95;1.80;;;;;;;12.58;30.99;102559.00;7793333;29;20035;-64
2021/04/15 11:46:13;;;;;;;4.10;1.90;;;;;;;12.53;31.16;102558.31;7789220;29;20044;-64
2021/04/15 11:50:12;;;;;;;2.10;1.67;;;;;;;12.40;31.04;102551.91;7778978;29;20505;-64
2021/04/15 11:54:02;;;;;;;5.00;1.40;;;;;;;12.28;30.82;102548.09;7779465;29;20044;-64
2021/04/15 11:57:57;;;;;;;2.58;1.30;;;;;;;12.21;30.73;102549.31;7779130;29;20151;-64
2021/04/15 12:01:50;;;;;;;2.53;1.38;;;;;;;12.20;30.86;102546.72;7779480;29;20730;-64
2021/04/15 12:05:45;;;;;;;1.98;1.30;;;;;;;12.22;30.98;102540.47;7779398;29;20103;-64
2021/04/15 12:09:36;;;;;;;2.78;1.58;;;;;;;12.27;30.86;102543.72;7779272;29;20382;-64
2021/04/15 12:13:33;;;;;;;3.47;1.80;;;;;;;12.27;30.76;102548.19;7780225;29;20032;-64
2021/04/15 12:17:33;;;;;;;2.17;1.25;;;;;;;12.20;30.64;102547.59;7776226;29;20059;-64
2021/04/15 12:21:32;;;;;;;3.22;1.60;;;;;;;12.13;30.80;102540.91;7778912;29;20052;-64
2021/04/15 12:25:25;;;;;;;3.53;1.88;;;;;;;12.15;31.07;102538.19;7777771;29;20043;-72
2021/04/15 12:29:40;;;;;;;2.28;1.70;;;;;;;12.18;30.95;102535.44;7761222;29;20059;-67
2021/04/15 12:33:46;;;;;;;3.70;1.95;;;;;;;12.23;31.08;102528.13;7759586;29;20051;-67
2021/04/15 12:37:44;;;;;;;3.47;1.90;;;;;;;12.25;31.13;102540.34;7777523;29;20040;-70
2021/04/15 12:41:36;;;;;;;;;;;;;;;12.08;31.52;102527.09;7759898;29;20024;-68
2021/04/15 12:45:48;;;;;;;1.48;1.38;;;;;;;12.03;30.91;102524.66;7759380;29;20018;-65
2021/04/15 12:49:39;;;;;;;1.63;1.20;;;;;;;11.93;30.74;102523.38;7781899;29;20032;-64
2021/04/15 12:53:34;;;;;;;2.90;1.50;;;;;;;11.90;30.71;102515.59;7756355;29;20024;-68
2021/04/15 12:57:27;;;;;;;3.03;1.27;;;;;;;11.95;30.73;102513.63;7778149;29;20051;-65
2021/04/15 13:01:18;;;;;;;1.73;1.23;;;;;;;12.04;30.92;102507.94;7777234;29;20036;-64
2021/04/15 13:05:24;;;;;;;4.13;1.88;;;;;;;12.08;30.78;102511.28;7781606;29;20067;-65
2021/04/15 13:09:25;;;;;;;2.25;1.38;;;;;;;12.04;30.81;102499.19;7777381;29;20111;-65
2021/04/15 13:13:34;;;;;;;2.65;1.70;;;;;;;11.96;30.86;102507.44;7776398;29;20040;-65
2021/04/15 13:17:52;;;;;;;3.78;1.60;;;;;;;11.85;30.71;102514.13;7774786;29;20054;-66
2021/04/15 13:22:00;;;;;;;2.20;1.42;;;;;;;11.72;30.60;102512.97;7775601;29;20043;-69
2021/04/15 13:25:50;;;;;;;4.25;1.55;;;;;;;11.64;30.65;102505.41;7778730;29;20067;-69
2021/04/15 13:30:19;;;;;;;2.45;1.23;;;;;;;11.59;30.62;102499.50;7758332;29;20147;-68
2021/04/15 13:34:50;;;;;;;2.58;1.35;;;;;;;11.49;30.90;102496.38;7776886;29;20484;-65
2021/04/15 13:38:58;;;;;;;1.33;1.13;;;;;;;11.42;30.62;102497.56;7756082;29;20053;-65
2021/04/15 13:42:49;;;;;;;3.72;1.77;;;;;;;11.26;30.85;102491.28;7777467;29;20382;-65
2021/04/15 13:46:45;;;;;;;4.68;1.67;;;;;;;11.19;30.82;102489.00;7774280;29;20060;-65
2021/04/15 13:51:03;;;;;;;2.72;1.85;;;;;;;11.05;30.77;102481.69;7776782;29;20071;-65
2021/04/15 13:54:54;;;;;;;3.90;2.10;;;;;;;10.96;30.96;102479.44;7776849;29;20062;-65
2021/04/15 13:58:45;;;;;;;2.30;1.75;;;;;;;10.94;31.30;102476.84;7776485;29;20040;-65
2021/04/15 14:02:40;;;;;;;3.88;1.63;;;;;;;11.01;31.12;102474.84;7778613;29;20036;-65
2021/04/15 14:06:31;;;;;;;3.22;1.40;;;;;;;11.04;31.07;102467.66;7782924;29;20428;-65
2021/04/15 14:10:35;;;;;;;2.65;1.52;;;;;;;11.08;31.01;102461.34;7762682;29;20532;-65
2021/04/15 14:14:42;;;;;;;3.70;1.75;;;;;;;11.16;31.01;102458.38;7780270;29;20729;-66
2021/04/15 14:18:41;;;;;;;4.40;1.60;;;;;;;11.20;31.40;102456.47;7781040;29;20036;-66
2021/04/15 14:22:33;;;;;;;3.22;1.30;;;;;;;11.21;31.41;102453.78;7786224;29;20036;-65
2021/04/15 14:26:28;;;;;;;2.13;1.60;;;;;;;11.20;31.53;102444.19;7782037;29;20391;-65
2021/04/15 14:30:21;;;;;;;6.60;2.08;;;;;;;11.19;31.54;102445.13;7782082;29;20036;-65
2021/04/15 14:34:19;;;;;;;2.38;1.48;;;;;;;11.21;31.49;102434.53;7781496;29;20036;-65
2021/04/15 14:38:15;;;;;;;2.17;1.50;;;;;;;11.21;31.68;102438.00;7780833;29;20039;-66
2021/04/15 14:42:09;;;;;;;2.67;1.42;;;;;;;11.22;31.74;102437.09;7781449;29;20048;-65
2021/04/15 14:46:21;;;;;;;7.85;1.70;;;;;;;11.26;31.60;102429.91;7779634;29;20552;-65
2021/04/15 14:50:21;;;;;;;7.68;1.95;;;;;;;11.32;31.42;102422.59;7779515;29;20691;-65
2021/04/15 14:54:19;;;;;;;1.95;1.40;;;;;;;11.31;31.45;102427.94;7780463;29;20047;-66
2021/04/15 14:58:22;;;;;;;2.47;1.40;;;;;;;11.24;31.63;102418.59;7780884;29;20056;-65
2021/04/15 15:02:26;;;;;;;2.08;1.20;;;;;;;11.20;31.18;102431.03;7780885;29;20048;-65
2021/04/15 15:06:34;;;;;;;2.45;1.73;;;;;;;11.07;30.97;102421.97;7748037;29;20048;-66
2021/04/15 15:10:26;;;;;;;2.67;1.90;;;;;;;11.01;31.20;102417.84;7779002;29;20039;-65
2021/04/15 15:14:45;;;;;;;3.67;1.67;;;;;;;10.95;31.22;102417.25;7776882;29;20046;-65
2021/04/15 15:18:36;;;;;;;3.60;1.73;;;;;;;10.94;31.27;102410.28;7773766;29;20043;-65
2021/04/15 15:22:34;;;;;;;2.90;1.92;;;;;;;10.87;30.93;102414.09;7777845;29;20044;-65
2021/04/15 15:26:31;;;;;;;;;;;;;;;10.65;31.40;102412.38;7778989;29;20047;-65
2021/04/15 15:30:42;;;;;;;1.70;1.60;;;;;;;10.66;31.01;102410.59;7777491;29;19971;-66
2021/04/15 15:34:36;;;;;;;3.88;1.80;;;;;;;10.70;30.79;102412.19;7780019;29;20055;-65
2021/04/15 15:38:39;;;;;;;3.88;1.92;;;;;;;10.75;30.58;102401.47;7777938;29;20048;-65
2021/04/15 15:42:54;;;;;;;2.15;1.60;;;;;;;10.76;30.72;102392.66;7759928;29;20044;-66
2021/04/15 15:46:51;;;;;;;2.92;1.98;;;;;;;10.75;30.49;102385.69;7777836;29;20627;-66
2021/04/15 15:50:44;;;;;;;3.15;1.98;;;;;;;10.69;30.61;102386.84;7779685;29;20067;-66
2021/04/15 15:54:43;;;;;;;4.97;1.98;;;;;;;10.64;30.70;102389.66;7778119;29;20044;-66
2021/04/15 15:58:34;;;;;;;2.13;1.70;;;;;;;10.60;30.87;102388.06;7778943;29;20091;-65
2021/04/15 16:02:30;;;;;;;3.35;2.40;;;;;;;10.55;30.91;102389.19;7777657;29;20032;-66
2021/04/15 16:06:23;;;;;;;4.75;2.45;;;;;;;10.49;30.94;102395.50;7778982;29;20115;-66
2021/04/15 16:10:30;;;;;;;5.50;2.22;;;;;;;10.42;30.79;102401.94;7778345;29;20878;-66
2021/04/15 16:14:37;;;;;;;2.90;2.05;;;;;;;10.31;30.76;102398.06;7777520;29;20070;-65
2021/04/15 16:18:30;;;;;;;2.97;2.40;;;;;;;10.21;30.83;102397.56;7776551;29;20044;-65
2021/04/15 16:22:24;;;;;;;4.30;2.72;;;;;;;10.14;31.01;102404.84;7779109;29;20044;-73
2021/04/15 16:26:16;;;;;;;2.85;2.20;;;;;;;10.06;31.07;102393.78;7779014;29;20032;-68
2021/04/15 16:30:11;;;;;;;4.47;2.28;;;;;;;10.03;31.00;102396.50;7758012;29;20490;-68
2021/04/15 16:34:02;;;;;;;2.80;2.00;;;;;;;9.98;31.33;102401.13;7777258;29;20659;-68
2021/04/15 16:37:57;;;;;;;2.95;2.10;;;;;;;9.96;31.02;102400.31;7778501;29;20571;-68
2021/04/15 16:41:49;;;;;;;6.03;2.00;;;;;;;9.92;31.19;102392.59;7777971;29;20063;-68
2021/04/15 16:45:44;;;;;;;2.50;2.05;;;;;;;9.86;30.94;102398.97;7764757;29;20051;-68
2021/04/15 16:49:48;;;;;;;3.90;2.17;;;;;;;9.85;31.33;102385.91;7993008;28;20582;-70
2021/04/15 16:53:39;;;;;;;4.03;2.30;;;;;;;9.88;31.27;102391.88;7986558;28;20037;-69
2021/04/15 16:57:30;;;;;;;2.78;2.10;;;;;;;9.93;31.27;102389.94;7959769;28;20087;-71
2021/04/15 17:01:21;;;;;;;6.07;2.45;;;;;;;9.97;31.43;102388.03;7956992;28;20045;-66
2021/04/15 17:05:12;;;;;;;3.13;2.10;;;;;;;9.99;31.38;102384.41;7954280;28;20915;-66
2021/04/15 17:09:04;;;;;;;5.43;2.80;;;;;;;10.00;31.29;102390.53;7953676;28;20029;-66
2021/04/15 17:12:55;;;;;;;3.75;2.40;;;;;;;10.00;31.27;102382.66;7955141;28;20069;-66
2021/04/15 17:16:46;;;;;;;5.75;2.03;;;;;;;9.97;31.38;102386.28;7956844;28;20073;-66
2021/04/15 17:20:37;;;;;;;2.60;1.70;;;;;;;9.91;31.53;102373.38;7959541;28;20049;-68
2021/04/15 17:24:27;;;;;;;4.47;2.50;;;;;;;9.88;31.40;102383.16;7959776;28;20044;-69
2021/04/15 17:28:20;;;;;;;2.35;1.65;;;;;;;9.79;31.35;102381.72;7959434;28;20025;-68
2021/04/15 17:32:11;;;;;;;4.25;1.77;;;;;;;9.71;30.91;102382.03;7959242;28;20421;-71
2021/04/15 17:36:02;;;;;;;2.22;1.67;;;;;;;9.66;31.21;102385.75;7962291;28;20040;-72
2021/04/15 17:39:52;;;;;;;2.30;1.67;;;;;;;9.56;31.41;102380.00;7958845;28;20030;-71
2021/04/15 17:43:43;;;;;;;2.42;1.60;;;;;;;9.49;31.19;102388.16;7959603;28;20565;-66
2021/04/15 17:47:34;;;;;;;3.55;1.70;;;;;;;9.43;31.39;102388.38;7956777;28;20037;-66
2021/04/15 17:51:26;;;;;;;2.40;1.55;;;;;;;9.39;31.33;102376.31;7960270;28;20041;-70
2021/04/15 17:55:18;;;;;;;2.00;1.70;;;;;;;9.37;31.35;102383.38;7960038;28;20118;-70
2021/04/15 17:59:09;;;;;;;8.38;1.83;;;;;;;9.31;31.45;102379.19;7946674;28;20052;-70
2021/04/15 18:03:01;;;;;;;3.58;1.80;;;;;;;9.32;31.34;102391.38;7938414;28;20048;-70
2021/04/15 18:06:53;;;;;;;2.33;1.40;;;;;;;9.24;31.51;102378.56;7936560;28;20034;-70
2021/04/15 18:10:53;;;;;;;3.90;1.75;;;;;;;9.24;31.43;102383.81;7937801;28;20683;-69
2021/04/15 18:14:44;;;;;;;3.03;1.20;;;;;;;9.21;32.29;102385.66;7935907;28;20041;-68
2021/04/15 18:18:36;;;;;;;1.70;1.60;;;;;;;9.17;31.56;102384.06;7937541;28;20037;-69
2021/04/15 18:22:26;;;;;;;2.35;1.70;;;;;;;9.11;31.96;102389.53;7933996;28;20037;-69
2021/04/15 18:26:18;;;;;;;2.72;1.70;;;;;;;9.05;31.79;102387.97;7937238;28;20508;-68
2021/04/15 18:30:20;;;;;;;3.10;1.90;;;;;;;9.00;31.67;102395.16;7935451;28;20517;-70
2021/04/15 18:34:12;;;;;;;2.83;1.60;;;;;;;8.94;31.86;102400.63;7938016;28;20453;-67
2021/04/15 18:38:06;;;;;;;2.30;1.42;;;;;;;8.86;32.09;102395.66;7935933;28;20039;-67
2021/04/15 18:41:57;;;;;;;4.32;1.58;;;;;;;8.78;31.83;102397.69;7938239;28;20026;-66